Time;durP1;ratioP1;P1;durP2;ratioP2;P2;SDS_P1;SDS_P2;PMS_P1;PMS_P2;Temp;Humidity;BMP_temperature;BMP_pressure;BME280_temperature;BME280_humidity;BME280_pressure;Samples;Min_cycle;Max_cycle;Signal;HPM_P1;HPM_P2
2021/12/14 00:02:13;;;;;;;2.73;2.40;;;;;;;8.08;79.38;101917.78;5056829;28;20228;-82
2021/12/14 00:04:41;;;;;;;2.47;2.17;;;;;;;8.09;80.17;101906.25;5058013;28;20189;-81
2021/12/14 00:07:11;;;;;;;3.60;2.53;;;;;;;8.08;80.25;101902.72;5056344;28;20609;-80
2021/12/14 00:09:42;;;;;;;3.20;2.27;;;;;;;8.08;79.32;101905.38;5057608;28;20222;-81
2021/12/14 00:12:23;;;;;;;2.57;2.10;;;;;;;8.08;79.73;101905.38;5057247;28;20205;-81
2021/12/14 00:15:04;;;;;;;2.97;2.43;;;;;;;8.06;79.43;101903.72;5057404;28;20213;-82
2021/12/14 00:17:37;;;;;;;2.73;2.33;;;;;;;8.08;79.68;101907.16;5057203;28;20233;-81
2021/12/14 00:20:12;;;;;;;3.00;2.43;;;;;;;8.06;79.66;101907.22;5051878;28;20234;-81
2021/12/14 00:24:06;;;;;;;2.93;2.07;;;;;;;8.06;79.74;101907.22;5049921;28;20209;-81
2021/12/14 00:25:32;;;;;;;3.63;2.57;;;;;;;8.05;79.35;101905.50;5057755;28;20211;-82
2021/12/14 00:28:01;;;;;;;2.87;2.20;;;;;;;8.05;79.45;101900.22;5056948;28;20209;-82
2021/12/14 00:30:28;;;;;;;2.93;2.27;;;;;;;8.05;79.27;101899.34;5056938;28;20414;-81
2021/12/14 00:32:56;;;;;;;3.17;2.47;;;;;;;8.05;79.45;101916.13;5056666;28;20212;-82
2021/12/14 00:35:23;;;;;;;2.77;2.27;;;;;;;8.04;79.77;101902.91;5056293;28;20205;-82
2021/12/14 00:37:53;;;;;;;2.73;2.23;;;;;;;8.04;78.97;101909.09;5056353;28;20225;-82
2021/12/14 00:40:24;;;;;;;2.33;2.13;;;;;;;8.03;79.19;101902.03;5056452;28;20236;-82
2021/12/14 00:42:54;;;;;;;2.67;2.33;;;;;;;8.04;79.08;101897.59;5056801;28;20543;-81
2021/12/14 00:45:22;;;;;;;2.93;2.40;;;;;;;8.04;78.85;101902.91;5055488;28;20649;-82
2021/12/14 00:47:51;;;;;;;2.90;2.30;;;;;;;8.03;78.81;101902.03;5056888;28;20205;-82
2021/12/14 00:50:22;;;;;;;3.23;2.10;;;;;;;8.03;79.10;101910.00;5056080;28;20595;-81
2021/12/14 00:52:50;;;;;;;2.50;2.30;;;;;;;8.02;78.87;101905.59;5056827;28;20194;-81
2021/12/14 00:55:19;;;;;;;2.77;2.37;;;;;;;8.02;78.95;101903.81;5056251;28;20198;-82
2021/12/14 00:57:46;;;;;;;3.17;2.60;;;;;;;8.03;78.71;101912.66;5056456;28;20774;-81
2021/12/14 01:00:16;;;;;;;3.47;2.90;;;;;;;8.01;79.13;101904.75;5055979;28;20218;-82
2021/12/14 01:02:44;;;;;;;3.80;2.73;;;;;;;8.01;79.13;101899.44;5056877;28;20227;-81
2021/12/14 01:05:13;;;;;;;3.20;2.50;;;;;;;8.01;78.79;101907.41;5055698;28;20213;-81
2021/12/14 01:07:42;;;;;;;4.73;2.40;;;;;;;8.01;78.63;101901.22;5056291;28;20554;-82
2021/12/14 01:10:15;;;;;;;3.10;2.40;;;;;;;8.00;78.35;101907.44;5055736;28;20230;-83
2021/12/14 01:12:48;;;;;;;3.57;2.60;;;;;;;8.01;78.32;101906.53;5056184;28;20551;-83
2021/12/14 01:15:27;;;;;;;3.23;2.70;;;;;;;8.00;78.45;101903.00;5055848;28;20214;-82
2021/12/14 01:18:13;;;;;;;3.37;2.60;;;;;;;7.99;78.61;101897.75;5055608;28;20571;-82
2021/12/14 01:20:43;;;;;;;3.40;3.10;;;;;;;7.97;79.03;101896.91;5036216;28;20717;-81
2021/12/14 01:23:17;;;;;;;3.93;2.97;;;;;;;7.97;78.72;101902.22;5036114;28;20206;-81
2021/12/14 01:25:49;;;;;;;3.30;2.93;;;;;;;7.98;78.05;101893.34;5040781;28;20212;-82
2021/12/14 01:28:19;;;;;;;3.40;3.10;;;;;;;7.96;78.54;101903.16;5054692;28;20291;-82
2021/12/14 01:30:57;;;;;;;3.73;3.00;;;;;;;7.96;78.34;101900.50;5055299;28;20191;-82
2021/12/14 01:33:26;;;;;;;3.33;3.03;;;;;;;7.95;78.64;101896.09;5055060;28;20188;-82
2021/12/14 01:35:54;;;;;;;3.13;2.83;;;;;;;7.94;78.71;101907.63;5055185;28;20206;-82
2021/12/14 01:38:35;;;;;;;3.93;3.47;;;;;;;7.94;78.90;101910.28;5054385;28;20687;-82
2021/12/14 01:41:09;;;;;;;5.90;3.33;;;;;;;7.92;78.38;101910.31;5054584;28;20241;-81
2021/12/14 01:43:41;;;;;;;3.80;3.17;;;;;;;7.93;78.43;101913.84;5054841;28;20198;-82
2021/12/14 01:46:13;;;;;;;4.07;3.30;;;;;;;7.91;78.51;101924.50;5055005;28;20636;-81
2021/12/14 01:48:42;;;;;;;3.77;3.30;;;;;;;7.92;78.77;101928.03;5054520;28;20233;-82
2021/12/14 01:51:11;;;;;;;3.87;3.47;;;;;;;7.90;78.37;101927.19;5055449;28;20205;-82
2021/12/14 01:53:43;;;;;;;3.93;3.57;;;;;;;7.90;79.06;101932.50;5055471;28;20267;-82
2021/12/14 01:56:13;;;;;;;4.57;3.67;;;;;;;7.90;79.20;101927.19;5054844;28;20281;-82
2021/12/14 01:58:43;;;;;;;4.07;3.63;;;;;;;7.90;79.49;101921.91;5054531;28;20240;-82
2021/12/14 02:01:14;;;;;;;4.97;4.13;;;;;;;7.89;78.93;101915.72;5055166;28;20206;-82
2021/12/14 02:03:44;;;;;;;4.97;4.13;;;;;;;7.88;79.04;101900.72;5054806;28;20197;-82
2021/12/14 02:06:15;;;;;;;5.33;4.37;;;;;;;7.89;78.96;101886.53;5055229;28;20276;-82
2021/12/14 02:08:43;;;;;;;4.77;3.57;;;;;;;7.90;78.44;101890.06;5054845;28;20227;-82
2021/12/14 02:11:10;;;;;;;5.70;4.37;;;;;;;7.88;78.82;101870.72;5054031;28;20212;-82
2021/12/14 02:13:40;;;;;;;5.57;4.10;;;;;;;7.86;79.27;101877.84;5054559;28;20614;-82
2021/12/14 02:16:09;;;;;;;5.27;4.37;;;;;;;7.86;78.91;101861.94;5054789;28;20224;-82
2021/12/14 02:18:36;;;;;;;4.63;3.87;;;;;;;7.83;78.90;101867.34;5055039;28;20233;-82
2021/12/14 02:21:07;;;;;;;5.30;4.33;;;;;;;7.83;79.08;101867.34;5054786;28;20296;-82
2021/12/14 02:23:36;;;;;;;5.93;4.07;;;;;;;7.83;79.13;101859.38;5055251;28;20196;-82
2021/12/14 02:26:09;;;;;;;5.60;4.50;;;;;;;7.82;78.98;101865.59;5057226;28;20213;-81
2021/12/14 02:28:36;;;;;;;5.30;4.33;;;;;;;7.81;79.32;101864.72;5059687;28;20226;-81
2021/12/14 02:31:06;;;;;;;5.53;4.10;;;;;;;7.80;79.24;101857.69;5058894;28;20568;-81
2021/12/14 02:33:37;;;;;;;5.10;4.20;;;;;;;7.78;79.18;101850.69;5059223;28;20198;-81
2021/12/14 02:36:10;;;;;;;5.83;4.40;;;;;;;7.78;78.48;101838.31;5058515;28;20675;-80
2021/12/14 02:38:41;;;;;;;5.13;4.10;;;;;;;7.76;79.40;101840.13;5058445;28;20227;-80
2021/12/14 02:41:09;;;;;;;5.67;4.40;;;;;;;7.75;79.03;101835.75;5058496;28;20197;-80
2021/12/14 02:43:39;;;;;;;6.00;4.27;;;;;;;7.75;78.68;101834.88;5058741;28;20562;-80
2021/12/14 02:46:10;;;;;;;5.03;4.17;;;;;;;7.76;78.88;101833.97;5058484;28;20189;-82
2021/12/14 02:48:37;;;;;;;5.17;4.17;;;;;;;7.76;79.80;101834.84;5058309;28;20225;-82
2021/12/14 02:51:12;;;;;;;5.80;4.50;;;;;;;7.75;79.15;101813.66;5057947;28;20217;-81
2021/12/14 02:53:39;;;;;;;5.80;5.03;;;;;;;7.73;79.85;101797.81;5058616;28;20475;-82
2021/12/14 02:56:10;;;;;;;6.40;4.13;;;;;;;7.71;79.07;101794.34;5058265;28;20308;-82
2021/12/14 02:58:37;;;;;;;5.93;4.37;;;;;;;7.73;79.97;101803.09;5057785;28;20241;-83
2021/12/14 03:01:05;;;;;;;5.53;4.23;;;;;;;7.71;79.75;101799.63;5057585;28;20194;-83
2021/12/14 03:03:32;;;;;;;5.00;4.27;;;;;;;7.71;79.75;101783.72;5057830;28;20197;-83
2021/12/14 03:06:00;;;;;;;5.27;4.17;;;;;;;7.71;78.86;101782.84;5058029;28;20795;-83
2021/12/14 03:08:32;;;;;;;4.57;3.90;;;;;;;7.69;79.69;101782.94;5057749;28;20289;-83
2021/12/14 03:11:10;;;;;;;5.13;4.07;;;;;;;7.71;79.88;101777.56;5057466;28;20591;-83
2021/12/14 03:13:39;;;;;;;4.50;3.97;;;;;;;7.71;79.23;101773.13;5057778;28;20186;-83
2021/12/14 03:16:09;;;;;;;4.70;4.13;;;;;;;7.70;80.00;101760.81;5056973;28;20209;-83
2021/12/14 03:18:38;;;;;;;5.07;4.03;;;;;;;7.69;79.51;101755.56;5058052;28;20233;-83
2021/12/14 03:21:09;;;;;;;5.83;4.40;;;;;;;7.66;79.33;101760.03;5058018;28;20215;-83
2021/12/14 03:23:39;;;;;;;5.67;4.13;;;;;;;7.68;79.52;101752.03;5057715;28;20640;-83
2021/12/14 03:26:09;;;;;;;4.83;3.70;;;;;;;7.70;79.19;101744.03;5057376;28;20280;-83
2021/12/14 03:28:38;;;;;;;4.33;3.60;;;;;;;7.68;79.50;101757.34;5057494;28;20217;-83
2021/12/14 03:31:20;;;;;;;4.63;4.13;;;;;;;7.66;79.43;101753.88;5057612;28;20212;-84
2021/12/14 03:33:50;;;;;;;4.93;4.43;;;;;;;7.66;79.45;101754.75;5058054;28;20186;-83
2021/12/14 03:36:20;;;;;;;5.10;4.30;;;;;;;7.67;79.88;101747.66;5058240;28;20300;-83
2021/12/14 03:38:52;;;;;;;3.80;3.27;;;;;;;7.68;79.06;101745.88;5057836;28;20590;-83
2021/12/14 03:41:21;;;;;;;4.90;3.90;;;;;;;7.68;79.32;101756.47;5057967;28;20281;-83
2021/12/14 03:43:53;;;;;;;4.47;3.93;;;;;;;7.69;79.29;101756.41;5058313;28;20208;-83
2021/12/14 03:46:20;;;;;;;4.97;4.40;;;;;;;7.69;79.10;101755.56;5057817;28;20198;-82
2021/12/14 03:48:47;;;;;;;4.50;3.70;;;;;;;7.69;78.96;101755.56;5057978;28;20225;-82
2021/12/14 03:51:13;;;;;;;4.17;3.67;;;;;;;7.70;78.66;101770.53;5057836;28;20235;-82
2021/12/14 03:53:40;;;;;;;3.73;3.10;;;;;;;7.69;79.08;101761.72;5057916;28;20227;-82
2021/12/14 03:56:09;;;;;;;3.80;3.27;;;;;;;7.70;78.67;101770.53;5057782;28;20232;-82
2021/12/14 03:58:39;;;;;;;5.23;3.83;;;;;;;7.69;79.27;101779.41;5057611;28;20610;-82
2021/12/14 04:01:10;;;;;;;4.10;3.10;;;;;;;7.70;78.38;101784.66;5057222;28;20186;-82
2021/12/14 04:03:37;;;;;;;3.57;3.27;;;;;;;7.71;79.14;101789.03;5057922;28;20546;-82
2021/12/14 04:06:04;;;;;;;4.03;3.23;;;;;;;7.71;78.79;101791.69;5056941;28;20689;-82
2021/12/14 04:08:32;;;;;;;3.67;3.20;;;;;;;7.70;78.61;101797.94;5057030;28;20236;-82
2021/12/14 04:11:01;;;;;;;3.80;3.40;;;;;;;7.71;78.43;101804.06;5057116;28;20197;-82
2021/12/14 04:13:33;;;;;;;4.50;3.73;;;;;;;7.70;78.43;101805.88;5057318;28;20577;-83
2021/12/14 04:16:00;;;;;;;4.13;3.73;;;;;;;7.71;78.74;101804.06;5056087;28;20216;-83
2021/12/14 04:18:28;;;;;;;4.40;3.47;;;;;;;7.70;78.34;101803.22;5055954;28;20230;-83
2021/12/14 04:20:58;;;;;;;5.50;3.53;;;;;;;7.71;78.64;101804.06;5056899;28;20292;-83
2021/12/14 04:23:27;;;;;;;4.70;3.60;;;;;;;7.70;78.50;101808.53;5056982;28;20244;-83
2021/12/14 04:25:59;;;;;;;4.20;3.80;;;;;;;7.72;78.66;101811.97;5056202;28;20204;-83
2021/12/14 04:28:34;;;;;;;4.67;3.47;;;;;;;7.71;78.46;101812.03;5056557;28;20226;-84
2021/12/14 04:31:01;;;;;;;4.37;3.87;;;;;;;7.72;78.73;101811.09;5056337;28;20194;-84
2021/12/14 04:33:30;;;;;;;5.07;3.73;;;;;;;7.70;78.15;101808.53;5056916;28;20213;-83
2021/12/14 04:35:59;;;;;;;4.60;4.20;;;;;;;7.70;78.00;101799.72;5056640;28;20209;-84
2021/12/14 04:38:29;;;;;;;4.50;4.03;;;;;;;7.70;78.15;101813.84;5056545;28;20245;-83
2021/12/14 04:52:10;;;;;;;4.67;3.70;;;;;;;7.68;78.02;101775.03;5055823;28;20239;-83
2021/12/14 04:54:41;;;;;;;3.53;3.20;;;;;;;7.66;78.79;101773.28;5056293;28;20568;-84
2021/12/14 04:57:25;;;;;;;4.80;3.87;;;;;;;7.65;78.75;101763.59;5055549;28;20200;-82
2021/12/14 04:59:57;;;;;;;4.50;3.60;;;;;;;7.65;78.86;101771.56;5055264;28;20240;-82
2021/12/14 05:02:27;;;;;;;4.53;3.53;;;;;;;7.66;77.79;101772.44;5055601;28;20192;-83
2021/12/14 05:04:56;;;;;;;3.90;3.50;;;;;;;7.64;78.73;101761.00;5055037;28;20208;-83
2021/12/14 05:10:09;;;;;;;5.13;3.80;;;;;;;7.63;78.87;101762.78;5033805;28;20240;-84
2021/12/14 05:12:38;;;;;;;4.33;3.60;;;;;;;7.63;78.38;101765.44;5055756;28;20209;-83
2021/12/14 05:15:11;;;;;;;5.20;3.93;;;;;;;7.62;78.13;101754.88;5055435;28;20251;-84
2021/12/14 05:17:39;;;;;;;4.83;4.03;;;;;;;7.61;78.91;101754.00;5056465;28;20200;-83
2021/12/14 05:20:10;;;;;;;4.03;3.63;;;;;;;7.60;78.96;101757.59;5055566;28;20596;-83
2021/12/14 05:22:41;;;;;;;5.27;4.30;;;;;;;7.60;78.63;101770.84;5055582;28;20209;-84
2021/12/14 05:25:13;;;;;;;6.70;4.47;;;;;;;7.59;78.59;101771.75;5056190;28;20225;-84
2021/12/14 05:27:43;;;;;;;5.70;4.23;;;;;;;7.59;78.32;101769.09;5055984;28;20189;-84
2021/12/14 05:30:16;;;;;;;5.50;4.13;;;;;;;7.58;77.97;101770.00;5055218;28;20221;-84
2021/12/14 05:32:43;;;;;;;5.07;4.50;;;;;;;7.57;78.99;101765.63;5055786;28;20198;-82
2021/12/14 05:35:13;;;;;;;5.53;4.57;;;;;;;7.57;78.87;101767.41;5055843;28;20237;-82
2021/12/14 05:37:45;;;;;;;5.30;4.80;;;;;;;7.55;78.96;101775.41;5055792;28;20208;-83
2021/12/14 05:40:22;;;;;;;5.97;4.70;;;;;;;7.56;78.93;101777.16;5055969;28;20244;-82
2021/12/14 05:43:07;;;;;;;6.20;4.97;;;;;;;7.56;78.31;101785.09;5055109;28;20208;-82
2021/12/14 05:45:39;;;;;;;6.27;5.17;;;;;;;7.57;78.20;101789.50;5055239;28;20242;-83
2021/12/14 05:48:16;;;;;;;8.57;5.53;;;;;;;7.56;78.59;101782.44;5054646;28;20217;-82
2021/12/14 05:50:46;;;;;;;6.60;5.63;;;;;;;7.56;78.07;101776.28;5054825;28;20196;-82
2021/12/14 05:53:22;;;;;;;6.93;5.03;;;;;;;7.56;78.94;101785.09;5054529;28;20240;-81
2021/12/14 05:55:49;;;;;;;6.07;4.80;;;;;;;7.55;77.87;101777.19;5055300;28;20248;-81
2021/12/14 05:58:18;;;;;;;5.87;5.07;;;;;;;7.55;78.85;101778.06;5054701;28;20212;-81
2021/12/14 06:00:49;;;;;;;5.87;4.63;;;;;;;7.55;78.19;101772.75;5053980;28;20225;-82
2021/12/14 06:03:19;;;;;;;6.20;5.03;;;;;;;7.56;78.25;101773.63;5055295;28;20280;-81
2021/12/14 06:05:46;;;;;;;6.30;5.40;;;;;;;7.54;78.49;101767.50;5056306;28;20217;-81
2021/12/14 06:08:20;;;;;;;6.30;4.93;;;;;;;7.54;78.86;101764.84;5055260;28;20207;-81
2021/12/14 06:10:47;;;;;;;5.33;4.30;;;;;;;7.52;77.81;101757.00;5054535;28;20194;-81
2021/12/14 06:13:16;;;;;;;5.43;4.87;;;;;;;7.51;78.75;101768.50;5054760;28;20210;-80
2021/12/14 06:15:43;;;;;;;6.10;4.67;;;;;;;7.52;78.86;101759.63;5054927;28;20240;-81
2021/12/14 06:18:12;;;;;;;5.77;5.17;;;;;;;7.53;78.11;101758.69;5054596;28;20206;-82
2021/12/14 06:20:42;;;;;;;7.40;5.20;;;;;;;7.53;78.54;101764.00;5055105;28;20715;-82
2021/12/14 06:23:09;;;;;;;6.93;5.30;;;;;;;7.53;78.83;101750.75;5054901;28;20200;-81
2021/12/14 06:25:36;;;;;;;6.10;4.77;;;;;;;7.54;78.22;101756.91;5055312;28;20207;-82
2021/12/14 06:28:03;;;;;;;7.03;5.50;;;;;;;7.54;78.39;101755.13;5055215;28;20205;-82
2021/12/14 06:30:32;;;;;;;6.87;5.47;;;;;;;7.52;77.58;101737.56;5054968;28;20587;-82
2021/12/14 06:33:01;;;;;;;7.13;5.33;;;;;;;7.52;77.95;101738.44;5055369;28;20210;-82
2021/12/14 06:35:35;;;;;;;7.63;4.97;;;;;;;7.54;78.55;101728.63;5055377;28;20671;-82
2021/12/14 06:38:25;;;;;;;6.13;5.30;;;;;;;7.56;77.83;101731.22;5055032;28;20277;-81
2021/12/14 06:41:04;;;;;;;7.50;5.23;;;;;;;7.54;78.40;101739.22;5055159;28;20217;-82
2021/12/14 06:43:33;;;;;;;6.27;4.90;;;;;;;7.53;78.18;101731.31;5055028;28;20192;-82
2021/12/14 06:46:04;;;;;;;6.47;5.40;;;;;;;7.52;77.80;101735.78;5055237;28;20209;-81
2021/12/14 06:48:35;;;;;;;5.97;5.30;;;;;;;7.53;77.82;101742.78;5055674;28;20687;-82
2021/12/14 06:51:08;;;;;;;8.23;6.10;;;;;;;7.53;78.01;101742.78;5056006;28;20200;-82
2021/12/14 06:53:35;;;;;;;7.80;6.57;;;;;;;7.52;77.35;101738.44;5055791;28;20281;-82
2021/12/14 06:56:06;;;;;;;7.43;5.90;;;;;;;7.53;77.96;101740.13;5055383;28;20205;-81
2021/12/14 06:58:35;;;;;;;6.73;5.50;;;;;;;7.55;78.09;101738.31;5055719;28;20225;-82
2021/12/14 07:01:08;;;;;;;6.97;5.37;;;;;;;7.55;77.58;101740.09;5054677;28;20226;-82
2021/12/14 07:03:40;;;;;;;5.93;5.13;;;;;;;7.57;78.00;101759.47;5055293;28;20212;-82
2021/12/14 07:06:08;;;;;;;6.83;5.47;;;;;;;7.58;78.14;101763.84;5055395;28;20186;-82
2021/12/14 07:08:35;;;;;;;6.23;4.87;;;;;;;7.58;77.98;101772.66;5055396;28;20221;-83
2021/12/14 07:11:02;;;;;;;6.77;5.60;;;;;;;7.60;77.70;101783.22;5056039;28;20205;-83
2021/12/14 07:13:37;;;;;;;6.07;5.40;;;;;;;7.59;77.72;101774.41;5058441;28;20220;-83
2021/12/14 07:16:12;;;;;;;7.83;6.13;;;;;;;7.58;77.67;101771.81;5058704;28;20213;-82
2021/12/14 07:18:41;;;;;;;10.17;6.77;;;;;;;7.58;77.38;101785.94;5058639;28;20241;-83
2021/12/14 07:21:12;;;;;;;7.70;6.23;;;;;;;7.58;77.63;101787.72;5058978;28;20225;-82
2021/12/14 07:23:38;;;;;;;9.93;6.10;;;;;;;7.59;78.14;101784.13;5059321;28;20519;-82
2021/12/14 07:26:08;;;;;;;7.80;6.20;;;;;;;7.57;78.19;101789.50;5058934;28;20208;-81
2021/12/14 07:28:39;;;;;;;7.93;5.77;;;;;;;7.57;78.14;101792.13;5059250;28;20228;-81
2021/12/14 07:31:15;;;;;;;9.10;6.50;;;;;;;7.58;78.54;101795.66;5058934;28;20235;-83
2021/12/14 07:33:49;;;;;;;6.87;5.63;;;;;;;7.57;78.60;101812.47;5058872;28;20196;-83
2021/12/14 07:36:23;;;;;;;8.40;5.90;;;;;;;7.57;77.77;101826.59;5058531;28;20190;-82
2021/12/14 07:38:51;;;;;;;8.00;6.10;;;;;;;7.56;78.39;101822.22;5058906;28;20226;-82
2021/12/14 07:41:24;;;;;;;6.67;5.47;;;;;;;7.56;78.84;101822.22;5057535;28;20253;-83
2021/12/14 07:43:58;;;;;;;8.73;5.60;;;;;;;7.57;78.87;101823.09;5058315;28;20694;-82
2021/12/14 07:46:32;;;;;;;7.90;6.43;;;;;;;7.57;78.70;101828.38;5058620;28;20194;-82
2021/12/14 07:49:03;;;;;;;8.13;6.27;;;;;;;7.57;78.68;101837.22;5058592;28;20227;-82
2021/12/14 07:51:36;;;;;;;7.97;5.93;;;;;;;7.58;78.02;101843.38;5058214;28;20220;-82
2021/12/14 07:54:06;;;;;;;11.03;6.40;;;;;;;7.57;79.39;101845.16;5058976;28;20227;-82
2021/12/14 07:56:38;;;;;;;8.83;5.97;;;;;;;7.56;79.04;101839.91;5058888;28;20190;-82
2021/12/14 07:59:11;;;;;;;9.80;6.90;;;;;;;7.56;79.18;101835.47;5058765;28;20230;-82
2021/12/14 08:01:40;;;;;;;9.50;6.80;;;;;;;7.56;79.44;101832.81;5058218;28;20668;-81
2021/12/14 08:04:10;;;;;;;7.97;6.63;;;;;;;7.55;79.32;101825.78;5058658;28;20205;-81
2021/12/14 08:06:54;;;;;;;9.83;7.27;;;;;;;7.55;79.37;101814.31;5058195;28;20640;-82
2021/12/14 08:09:44;;;;;;;9.13;7.23;;;;;;;7.55;79.13;101820.47;5057724;28;20221;-81
2021/12/14 08:12:12;;;;;;;10.20;7.97;;;;;;;7.55;79.76;101820.47;5057614;28;20182;-81
2021/12/14 08:14:41;;;;;;;11.20;8.63;;;;;;;7.54;79.36;101828.47;5057588;28;20209;-81
2021/12/14 08:17:09;;;;;;;12.00;8.97;;;;;;;7.53;80.23;101837.34;5057969;28;20207;-82
2021/12/14 08:19:41;;;;;;;12.30;9.73;;;;;;;7.52;79.76;101841.81;5057764;28;20664;-81
2021/12/14 08:22:15;;;;;;;10.97;8.23;;;;;;;7.52;79.88;101839.16;5057296;28;20291;-81
2021/12/14 08:24:49;;;;;;;10.70;7.90;;;;;;;7.55;80.21;101840.81;5057999;28;20181;-82
2021/12/14 08:27:21;;;;;;;11.80;7.77;;;;;;;7.56;80.53;101856.69;5058616;28;20531;-82
2021/12/14 08:29:53;;;;;;;9.70;7.77;;;;;;;7.56;79.90;101855.81;5058486;28;20729;-81
2021/12/14 08:32:23;;;;;;;10.40;7.63;;;;;;;7.57;80.35;101862.84;5058494;28;20196;-81
2021/12/14 08:34:53;;;;;;;9.73;7.27;;;;;;;7.57;80.66;101869.03;5058468;28;20198;-81
2021/12/14 08:37:23;;;;;;;9.63;7.70;;;;;;;7.56;80.48;101864.63;5058255;28;20228;-81
2021/12/14 08:39:58;;;;;;;10.37;7.20;;;;;;;7.57;79.98;101861.06;5057794;28;20229;-81
2021/12/14 08:42:33;;;;;;;9.83;7.67;;;;;;;7.59;80.50;101863.69;5058525;28;20632;-82
2021/12/14 08:45:02;;;;;;;10.80;8.40;;;;;;;7.58;80.91;101865.47;5057321;28;20579;-82
2021/12/14 08:47:34;;;;;;;10.47;8.43;;;;;;;7.58;80.39;101862.81;5057106;28;20202;-82
2021/12/14 08:50:09;;;;;;;11.63;9.03;;;;;;;7.59;80.37;101859.25;5056946;28;20222;-82
2021/12/14 08:52:40;;;;;;;12.30;9.43;;;;;;;7.60;80.47;101853.03;5056653;28;20635;-81
2021/12/14 08:55:12;;;;;;;11.17;8.70;;;;;;;7.61;80.56;101848.59;5056666;28;20197;-81
2021/12/14 08:57:40;;;;;;;12.83;9.37;;;;;;;7.62;81.36;101848.53;5056592;28;20186;-82
2021/12/14 09:00:14;;;;;;;13.63;10.10;;;;;;;7.64;80.96;101852.00;5056795;28;20233;-81
2021/12/14 09:02:42;;;;;;;12.97;10.20;;;;;;;7.62;81.62;101856.50;5056947;28;20196;-81
2021/12/14 09:05:12;;;;;;;12.80;10.03;;;;;;;7.63;81.41;101863.53;5057001;28;20206;-81
2021/12/14 09:07:44;;;;;;;14.10;10.87;;;;;;;7.64;81.40;101857.31;5057043;28;20225;-81
2021/12/14 09:10:14;;;;;;;14.03;10.60;;;;;;;7.63;81.63;101852.94;5056770;28;20578;-82
2021/12/14 09:12:43;;;;;;;14.27;11.03;;;;;;;7.66;81.50;101860.78;5055597;28;20209;-82
2021/12/14 09:15:14;;;;;;;15.13;11.70;;;;;;;7.66;81.25;101863.44;5055101;28;20271;-82
2021/12/14 09:17:40;;;;;;;16.33;12.27;;;;;;;7.69;81.56;101861.63;5055944;28;20200;-82
2021/12/14 09:20:14;;;;;;;17.07;12.60;;;;;;;7.70;81.60;101860.69;5055214;28;20225;-81
2021/12/14 09:22:46;;;;;;;20.67;14.87;;;;;;;7.71;81.49;101873.88;5055273;28;20196;-82
2021/12/14 09:25:21;;;;;;;28.20;19.07;;;;;;;7.73;81.78;101863.22;5055742;28;20194;-82
2021/12/14 09:27:48;;;;;;;24.57;17.43;;;;;;;7.73;82.13;101865.88;5055660;28;20204;-81
2021/12/14 09:30:21;;;;;;;22.23;16.17;;;;;;;7.75;81.73;101869.34;5055540;28;20225;-82
2021/12/14 09:32:48;;;;;;;20.57;15.80;;;;;;;7.77;82.43;101868.38;5056301;28;20190;-82
2021/12/14 09:35:17;;;;;;;23.50;17.63;;;;;;;7.78;82.16;101869.25;5055374;28;20206;-82
2021/12/14 09:37:47;;;;;;;20.70;17.30;;;;;;;7.78;82.47;101863.94;5056316;28;20201;-82
2021/12/14 09:40:20;;;;;;;23.87;17.90;;;;;;;7.81;82.58;101864.72;5055972;28;20694;-82
2021/12/14 09:42:46;;;;;;;21.73;17.07;;;;;;;7.82;82.51;101857.63;5055882;28;20234;-81
2021/12/14 09:45:17;;;;;;;21.57;15.27;;;;;;;7.85;82.61;101862.84;5054957;28;20208;-81
2021/12/14 09:47:48;;;;;;;19.80;15.40;;;;;;;7.88;82.68;101849.50;5055360;28;20190;-81
2021/12/14 09:50:21;;;;;;;26.00;20.17;;;;;;;7.90;82.79;101852.94;5055341;28;20586;-82
2021/12/14 09:52:50;;;;;;;21.37;17.70;;;;;;;7.90;82.93;101845.84;5055933;28;20225;-82
2021/12/14 09:55:29;;;;;;;23.27;17.10;;;;;;;7.92;82.10;101844.00;5055193;28;20583;-82
2021/12/14 09:57:59;;;;;;;22.87;16.93;;;;;;;7.95;82.93;101841.25;5055111;28;20285;-82
2021/12/14 10:00:31;;;;;;;21.20;16.77;;;;;;;7.97;82.81;101839.44;5055989;28;20241;-81
2021/12/14 10:03:01;;;;;;;24.83;18.10;;;;;;;7.99;82.75;101842.91;5055545;28;20240;-81
2021/12/14 10:05:39;;;;;;;21.30;17.87;;;;;;;8.01;82.75;101834.91;5055945;28;20205;-81
2021/12/14 10:08:15;;;;;;;27.00;21.87;;;;;;;8.04;83.23;101839.22;5055464;28;20611;-81
2021/12/14 10:10:46;;;;;;;23.03;18.77;;;;;;;8.07;83.21;101841.75;5055862;28;20193;-81
2021/12/14 10:13:13;;;;;;;24.23;20.13;;;;;;;8.09;83.60;101835.47;5055587;28;20193;-81
2021/12/14 10:15:45;;;;;;;24.30;19.77;;;;;;;8.11;82.63;101831.00;5055497;28;20217;-81
2021/12/14 10:18:17;;;;;;;27.47;20.53;;;;;;;8.13;83.22;101826.50;5056290;28;20186;-81
2021/12/14 10:20:48;;;;;;;28.73;23.07;;;;;;;8.18;82.85;101835.19;5055571;28;20218;-81
2021/12/14 10:23:18;;;;;;;27.70;20.70;;;;;;;8.20;82.92;101824.53;5055950;28;20284;-80
2021/12/14 10:25:49;;;;;;;24.47;17.90;;;;;;;8.24;83.00;101826.97;5055554;28;20216;-80
2021/12/14 10:28:17;;;;;;;28.40;20.83;;;;;;;8.27;82.84;101820.72;5056012;28;20231;-81
2021/12/14 10:30:49;;;;;;;24.77;19.30;;;;;;;8.30;83.40;101820.59;5055338;28;20208;-81
2021/12/14 10:33:15;;;;;;;27.43;20.80;;;;;;;8.33;82.93;101816.09;5055219;28;20223;-82
2021/12/14 10:35:48;;;;;;;24.40;19.37;;;;;;;8.37;83.08;101818.66;5055582;28;20201;-81
2021/12/14 10:38:24;;;;;;;24.40;17.63;;;;;;;8.37;83.44;101823.97;5055531;28;20261;-80
2021/12/14 10:43:42;;;;;;;26.00;18.83;;;;;;;8.42;81.92;101824.66;5054353;28;20261;-81
2021/12/14 10:46:15;;;;;;;25.47;19.50;;;;;;;8.43;82.31;101821.06;5055384;28;20202;-81
2021/12/14 10:48:47;;;;;;;28.43;21.23;;;;;;;8.42;82.59;101817.53;5057798;28;20672;-82
2021/12/14 10:51:18;;;;;;;32.93;21.13;;;;;;;8.45;82.71;101819.22;5047613;28;20264;-82
2021/12/14 10:53:48;;;;;;;24.10;18.17;;;;;;;8.48;82.99;101832.38;5037272;28;20193;-83
2021/12/14 10:56:18;;;;;;;29.33;19.87;;;;;;;8.51;82.29;101830.50;5037174;28;20210;-82
2021/12/14 10:58:53;;;;;;;29.70;20.50;;;;;;;8.54;82.25;101829.53;5037292;28;20226;-82
2021/12/14 11:01:26;;;;;;;27.40;20.63;;;;;;;8.56;82.14;101830.34;5037753;28;20209;-83
2021/12/14 11:03:57;;;;;;;28.30;21.20;;;;;;;8.57;82.28;101826.78;5052390;28;20231;-83
2021/12/14 11:06:29;;;;;;;32.33;22.13;;;;;;;8.59;81.96;101830.25;5076758;28;20200;-82
2021/12/14 11:09:39;;;;;;;23.13;17.03;;;;;;;8.62;82.48;101830.09;5062159;28;20229;-81
2021/12/14 11:11:56;;;;;;;26.13;19.80;;;;;;;8.64;82.41;101818.50;5044171;28;20214;-83
2021/12/14 11:14:26;;;;;;;24.27;19.60;;;;;;;8.64;82.07;101825.59;5060846;28;20214;-82
2021/12/14 11:19:45;;;;;;;27.13;17.60;;;;;;;8.68;81.61;101811.28;5068686;28;20275;-81
2021/12/14 11:22:14;;;;;;;26.73;18.27;;;;;;;8.70;81.87;101814.75;5057750;28;20232;-81
2021/12/14 11:24:45;;;;;;;26.70;18.87;;;;;;;8.71;81.40;101816.50;5073379;28;20572;-81
2021/12/14 11:27:17;;;;;;;23.27;17.80;;;;;;;8.73;81.91;101819.09;5067507;28;20208;-83
2021/12/14 11:29:44;;;;;;;20.80;15.93;;;;;;;8.72;81.41;101812.91;5061925;28;20292;-81
2021/12/14 11:32:17;;;;;;;21.93;17.23;;;;;;;8.74;81.24;101812.88;5045008;28;20206;-81
2021/12/14 11:34:45;;;;;;;25.80;17.27;;;;;;;8.77;81.74;101816.28;5051555;28;20236;-81
2021/12/14 11:37:16;;;;;;;28.63;19.73;;;;;;;8.79;81.62;101813.53;5068968;28;20212;-81
2021/12/14 11:39:47;;;;;;;27.70;22.27;;;;;;;8.80;81.21;101815.28;5060633;28;20229;-82
2021/12/14 11:42:22;;;;;;;32.53;22.73;;;;;;;8.79;81.02;101810.88;5042209;28;20379;-83
2021/12/14 11:44:52;;;;;;;24.27;18.53;;;;;;;8.82;81.68;101819.59;5064195;28;20558;-82
2021/12/14 11:47:41;;;;;;;21.20;18.23;;;;;;;8.84;81.16;101817.75;5074599;28;20582;-82
2021/12/14 11:50:17;;;;;;;26.90;18.20;;;;;;;8.85;81.57;101822.16;5064334;28;20236;-81
2021/12/14 11:52:51;;;;;;;27.87;18.53;;;;;;;8.86;81.53;101815.91;5055832;28;20209;-81
2021/12/14 11:55:43;;;;;;;25.07;18.30;;;;;;;8.88;80.96;101821.19;5062973;28;20210;-81
2021/12/14 11:58:18;;;;;;;26.47;18.47;;;;;;;8.88;80.87;101819.38;5047605;28;20291;-81
2021/12/14 12:00:48;;;;;;;21.83;16.60;;;;;;;8.89;81.47;101825.56;5056182;28;20225;-81
2021/12/14 12:03:23;;;;;;;22.20;17.20;;;;;;;8.89;81.01;101821.13;5052721;28;20210;-81
2021/12/14 12:06:01;;;;;;;23.17;16.93;;;;;;;8.92;80.92;101820.16;5056751;28;20189;-81
2021/12/14 12:11:17;;;;;;;24.33;16.70;;;;;;;8.93;80.55;101830.72;5036955;28;20225;-82